Santa Rita — DIOY2 — position and weather

sailwx.info

Track history (hours):
 
Tides and Currents Weather Stations Pressure Air Temp Water Temp Dewpoint Dewpoint Depression Visibility Wind Speed Wind Dir Waves Ship Positions

Santa Rita

Last reported at 2017-May-26 02:42 UTC. Time now 2017-May-26 13:15 UTC.
Position N 30°32' E 122°24'.

Length 300 m; draft 11.8 m.

Type: Ship (hazmat cat A). MMSI: 218670000.

Date/timePositionNaut miles runAvg speedWind from/ knotsBaromVisibWave heightAir tempDewpointWater temp
2017-May-26 02:42N 30°32' E 122°24'2 6.2
2017-May-26 02:22N 30°32' E 122°26'4 9.7
2017-May-26 02:00N 30°31' E 122°30'510.0
2017-May-26 01:28N 30°30' E 122°36'3 1.7
2017-May-25 23:41N 30°28' E 122°38'0 0.0
2017-May-25 23:26N 30°28' E 122°38'0 0.1
2017-May-25 21:41N 30°28' E 122°39'0 0.0
2017-May-25 21:11N 30°28' E 122°39'0 0.0
2017-May-25 20:05N 30°28' E 122°39'0 0.0
2017-May-25 19:53N 30°28' E 122°39'  
2017-May-23 00:00N 30°00' E 123°00'   180 / 131010.0 5.4 23.021.621.0
2017-May-18 12:43N 24°18' E 118°13'210.4
2017-May-18 12:29N 24°19' E 118°11'510.5
2017-May-18 12:00N 24°23' E 118°07'4 8.4
2017-May-18 11:30N 24°26' E 118°04'3 5.4
2017-May-18 11:00N 24°27' E 118°01'0 0.0
2017-May-18 10:17N 24°27' E 118°01'0 0.0
2017-May-18 09:47N 24°27' E 118°01'0 0.0
2017-May-18 09:23N 24°27' E 118°01'0 0.0
2017-May-18 08:59N 24°27' E 118°01'0 0.0
2017-May-18 08:29N 24°27' E 118°01'0 0.0
2017-May-18 07:47N 24°27' E 118°01'0 0.0
2017-May-18 07:29N 24°27' E 118°01'0 0.0
2017-May-18 06:47N 24°27' E 118°01'0 0.0
2017-May-18 06:29N 24°27' E 118°01'0 0.0
2017-May-18 05:56N 24°27' E 118°01'0 0.0
2017-May-18 05:29N 24°27' E 118°01'0 0.0
2017-May-18 04:59N 24°27' E 118°01'0 0.1
2017-May-18 04:29N 24°27' E 118°01'0 0.0
2017-May-18 03:53N 24°27' E 118°01'0 0.1
2017-May-18 03:29N 24°27' E 118°01'0 0.0
2017-May-18 02:56N 24°27' E 118°01'0 0.0
2017-May-18 02:17N 24°27' E 118°01'0 0.0
2017-May-18 01:59N 24°27' E 118°01'0 0.0
2017-May-18 01:29N 24°27' E 118°01'0 0.0
2017-May-18 01:00N 24°27' E 118°01'1 2.8
2017-May-18 00:30N 24°26' E 118°02'611.2
2017-May-18 00:00N 24°23' E 118°07'611.5
2017-May-17 23:30N 24°19' E 118°12'611.7
2017-May-17 23:01N 24°14' E 118°16'713.0
2017-May-17 22:31N 24°09' E 118°20'713.2
2017-May-17 21:58N 24°02' E 118°19'612.6
2017-May-17 21:31N 23°57' E 118°15'712.9
2017-May-17 20:58N 23°52' E 118°10'  
Track history (hours):
 
Tides and Currents Weather Stations Pressure Air Temp Water Temp Dewpoint Dewpoint Depression Visibility Wind Speed Wind Dir Waves Ship Positions

Santa Rita

Last reported at 2017-May-26 02:42 UTC. Time now 2017-May-26 13:15 UTC.
Position N 30°32' E 122°24'.

Length 300 m; draft 11.8 m.

Type: Ship (hazmat cat A). MMSI: 218670000.

Date/timePositionNaut miles runAvg speedWind from/ knotsBaromVisibWave heightAir tempDewpointWater temp
2017-May-26 02:42N 30°32' E 122°24'2 6.2
2017-May-26 02:22N 30°32' E 122°26'4 9.7
2017-May-26 02:00N 30°31' E 122°30'510.0
2017-May-26 01:28N 30°30' E 122°36'3 1.7
2017-May-25 23:41N 30°28' E 122°38'0 0.0
2017-May-25 23:26N 30°28' E 122°38'0 0.1
2017-May-25 21:41N 30°28' E 122°39'0 0.0
2017-May-25 21:11N 30°28' E 122°39'0 0.0
2017-May-25 20:05N 30°28' E 122°39'0 0.0
2017-May-25 19:53N 30°28' E 122°39'  
2017-May-23 00:00N 30°00' E 123°00'   180 / 131010.0 5.4 23.021.621.0
2017-May-18 12:43N 24°18' E 118°13'210.4
2017-May-18 12:29N 24°19' E 118°11'510.5
2017-May-18 12:00N 24°23' E 118°07'4 8.4
2017-May-18 11:30N 24°26' E 118°04'3 5.4
2017-May-18 11:00N 24°27' E 118°01'0 0.0
2017-May-18 10:17N 24°27' E 118°01'0 0.0
2017-May-18 09:47N 24°27' E 118°01'0 0.0
2017-May-18 09:23N 24°27' E 118°01'0 0.0
2017-May-18 08:59N 24°27' E 118°01'0 0.0
2017-May-18 08:29N 24°27' E 118°01'0 0.0
2017-May-18 07:47N 24°27' E 118°01'0 0.0
2017-May-18 07:29N 24°27' E 118°01'0 0.0
2017-May-18 06:47N 24°27' E 118°01'0 0.0
2017-May-18 06:29N 24°27' E 118°01'0 0.0
2017-May-18 05:56N 24°27' E 118°01'0 0.0
2017-May-18 05:29N 24°27' E 118°01'0 0.0
2017-May-18 04:59N 24°27' E 118°01'0 0.1
2017-May-18 04:29N 24°27' E 118°01'0 0.0
2017-May-18 03:53N 24°27' E 118°01'0 0.1
2017-May-18 03:29N 24°27' E 118°01'0 0.0
2017-May-18 02:56N 24°27' E 118°01'0 0.0
2017-May-18 02:17N 24°27' E 118°01'0 0.0
2017-May-18 01:59N 24°27' E 118°01'0 0.0
2017-May-18 01:29N 24°27' E 118°01'0 0.0
2017-May-18 01:00N 24°27' E 118°01'1 2.8
2017-May-18 00:30N 24°26' E 118°02'611.2
2017-May-18 00:00N 24°23' E 118°07'611.5
2017-May-17 23:30N 24°19' E 118°12'611.7
2017-May-17 23:01N 24°14' E 118°16'713.0
2017-May-17 22:31N 24°09' E 118°20'713.2
2017-May-17 21:58N 24°02' E 118°19'612.6
2017-May-17 21:31N 23°57' E 118°15'712.9
2017-May-17 20:58N 23°52' E 118°10'  

Dump ship's entire track history